Time;durP1;ratioP1;P1;durP2;ratioP2;P2;SDS_P1;SDS_P2;PMS_P1;PMS_P2;Temp;Humidity;BMP_temperature;BMP_pressure;BME280_temperature;BME280_humidity;BME280_pressure;Samples;Min_cycle;Max_cycle;Signal;HPM_P1;HPM_P2
2023/07/30 00:01:53;;;;;;;2.87;2.67;;;16.80;99.90;16.40;99386;;;;556181;254;24239;-84
2023/07/30 00:04:21;;;;;;;2.47;2.37;;;16.80;99.90;16.40;99382;;;;556595;254;24183;-84
2023/07/30 00:06:52;;;;;;;2.83;2.63;;;16.80;99.90;16.40;99384;;;;556308;254;24142;-83
2023/07/30 00:09:17;;;;;;;2.47;2.33;;;16.80;99.90;16.40;99386;;;;565368;251;24159;-84
2023/07/30 00:11:51;;;;;;;2.57;2.37;;;16.80;99.90;16.40;99395;;;;565953;254;24193;-83
2023/07/30 00:14:15;;;;;;;2.80;2.60;;;16.90;99.90;16.40;99397;;;;556968;254;24158;-84
2023/07/30 00:16:46;;;;;;;2.83;2.13;;;16.90;99.90;16.50;99395;;;;556663;254;24176;-85
2023/07/30 00:19:11;;;;;;;2.20;2.00;;;16.90;99.90;16.50;99386;;;;564787;250;24158;-84
2023/07/30 00:21:39;;;;;;;2.20;2.10;;;17.00;99.90;16.60;99404;;;;557562;254;24170;-84
2023/07/30 00:24:09;;;;;;;2.20;2.00;;;17.00;99.90;16.60;99401;;;;557416;254;24138;-86
2023/07/30 00:26:38;;;;;;;1.93;1.83;;;17.00;99.90;16.60;99394;;;;564199;249;24146;-85
2023/07/30 00:29:05;;;;;;;1.77;1.67;;;17.00;99.90;16.50;99393;;;;564247;250;24174;-85
2023/07/30 00:31:30;;;;;;;1.90;1.80;;;17.00;99.90;16.50;99392;;;;555655;254;24157;-85
2023/07/30 00:34:00;;;;;;;2.00;1.90;;;16.90;99.90;16.50;99398;;;;565227;254;24194;-86
2023/07/30 00:36:28;;;;;;;1.83;1.73;;;16.90;99.90;16.40;99399;;;;563806;251;24202;-86
2023/07/30 00:39:00;;;;;;;1.97;1.70;;;16.90;99.90;16.40;99394;;;;557137;254;24154;-85
2023/07/30 00:41:29;;;;;;;3.43;1.77;;;16.80;99.90;16.40;99391;;;;555291;255;24197;-85
2023/07/30 00:44:03;;;;;;;3.13;1.60;;;16.80;99.90;16.30;99386;;;;564718;254;24270;-84
2023/07/30 00:46:29;;;;;;;2.50;1.77;;;16.70;99.90;16.30;99389;;;;556454;254;24143;-85
2023/07/30 00:49:01;;;;;;;1.90;1.80;;;16.70;99.90;16.20;99394;;;;556047;254;24142;-85
2023/07/30 00:51:25;;;;;;;1.77;1.67;;;16.70;99.90;16.20;99399;;;;555677;254;24149;-84
2023/07/30 00:53:57;;;;;;;2.83;1.83;;;16.60;99.90;16.10;99399;;;;564456;250;24159;-85
2023/07/30 00:56:26;;;;;;;2.10;1.90;;;16.50;99.90;16.10;99399;;;;562711;250;24143;-84
2023/07/30 00:58:50;;;;;;;1.83;1.73;;;16.50;99.90;16.10;99391;;;;545759;259;24201;-85
2023/07/30 01:01:22;;;;;;;1.73;1.63;;;16.50;99.90;16.00;99397;;;;555945;254;24158;-84
2023/07/30 01:03:49;;;;;;;2.07;1.97;;;16.40;99.90;15.90;99386;;;;564104;251;24156;-85
2023/07/30 01:06:17;;;;;;;3.73;1.90;;;16.40;99.90;15.90;99391;;;;563890;250;24198;-85
2023/07/30 01:08:42;;;;;;;2.13;2.00;;;16.30;99.90;15.80;99403;;;;564799;251;24217;-85
2023/07/30 01:11:14;;;;;;;4.07;2.00;;;16.20;99.90;15.70;99400;;;;564840;254;24170;-85
2023/07/30 01:13:40;;;;;;;1.90;1.80;;;16.20;99.90;15.70;99397;;;;564235;251;24176;-85
2023/07/30 01:16:11;;;;;;;2.77;2.30;;;16.10;99.90;15.60;99399;;;;556708;254;24151;-86
2023/07/30 01:18:40;;;;;;;1.90;1.80;;;16.00;99.90;15.60;99406;;;;556105;254;24124;-84
2023/07/30 01:21:09;;;;;;;2.30;2.20;;;16.00;99.90;15.60;99409;;;;555626;255;24151;-83
2023/07/30 01:23:41;;;;;;;2.10;2.00;;;16.00;99.90;15.60;99402;;;;556982;254;24162;-85
2023/07/30 01:26:14;;;;;;;2.53;2.07;;;16.00;99.90;15.50;99407;;;;556650;254;24196;-85
2023/07/30 01:28:46;;;;;;;2.33;2.20;;;15.90;99.90;15.50;99415;;;;564783;254;24175;-85
2023/07/30 01:31:11;;;;;;;4.13;2.03;;;16.00;99.90;15.50;99416;;;;564352;254;24153;-84
2023/07/30 01:33:42;;;;;;;2.33;1.90;;;15.90;99.90;15.50;99417;;;;565493;250;24110;-86
2023/07/30 01:36:07;;;;;;;2.50;2.20;;;15.90;99.90;15.50;99417;;;;557307;254;24151;-84
2023/07/30 01:38:38;;;;;;;2.07;1.83;;;15.90;99.90;15.40;99423;;;;565793;250;23194;-84
2023/07/30 01:41:10;;;;;;;3.17;1.80;;;15.90;99.90;15.50;99421;;;;557661;254;24131;-84
2023/07/30 01:43:34;;;;;;;2.30;2.20;;;15.90;99.90;15.50;99430;;;;557199;250;24163;-85
2023/07/30 01:46:02;;;;;;;2.40;2.30;;;15.90;99.90;15.50;99424;;;;565003;254;24128;-84
2023/07/30 01:48:30;;;;;;;2.23;2.03;;;15.90;99.90;15.50;99426;;;;557022;254;24143;-85
2023/07/30 01:51:02;;;;;;;4.40;2.13;;;16.00;99.90;15.50;99423;;;;557356;254;24142;-83
2023/07/30 01:53:33;;;;;;;5.30;2.20;;;15.90;99.90;15.50;99420;;;;565747;254;24115;-85
2023/07/30 01:56:04;;;;;;;4.90;2.40;;;16.00;99.90;15.50;99419;;;;565709;252;24162;-83
2023/07/30 01:58:29;;;;;;;4.20;2.30;;;15.90;99.90;15.50;99426;;;;565233;251;24153;-84
2023/07/30 02:01:01;;;;;;;3.83;2.50;;;15.90;99.90;15.50;99424;;;;556979;254;24198;-84
2023/07/30 02:03:28;;;;;;;4.07;2.80;;;16.00;99.90;15.50;99421;;;;563942;254;24191;-85
2023/07/30 02:05:56;;;;;;;3.83;2.67;;;16.00;99.90;15.40;99424;;;;555970;254;24167;-84
2023/07/30 02:08:21;;;;;;;4.43;2.80;;;15.90;99.90;15.40;99422;;;;556131;254;24141;-85
2023/07/30 02:11:02;;;;;;;4.97;2.80;;;15.90;99.90;15.30;99427;;;;556384;254;24147;-87
2023/07/30 02:13:31;;;;;;;3.20;2.67;;;15.80;99.90;15.30;99429;;;;555892;254;24187;-85
2023/07/30 02:15:59;;;;;;;2.57;2.37;;;15.80;99.90;15.20;99432;;;;556357;254;24156;-84
2023/07/30 02:18:32;;;;;;;2.80;2.60;;;15.70;99.90;15.10;99416;;;;556685;254;24203;-84
2023/07/30 02:20:57;;;;;;;2.70;2.50;;;15.60;99.90;15.10;99430;;;;564569;250;24225;-84
2023/07/30 02:23:29;;;;;;;2.60;2.40;;;15.60;99.90;15.00;99426;;;;565016;254;24183;-84
2023/07/30 02:25:57;;;;;;;3.37;3.07;;;15.50;99.90;15.00;99426;;;;556791;251;24214;-84
2023/07/30 02:28:24;;;;;;;2.93;2.67;;;15.50;99.90;14.90;99429;;;;564708;254;24144;-84
2023/07/30 02:30:49;;;;;;;3.33;2.80;;;15.40;99.90;14.90;99430;;;;564681;250;24160;-85
2023/07/30 02:33:20;;;;;;;2.60;2.40;;;15.40;99.90;14.80;99432;;;;565883;251;24150;-84
2023/07/30 02:35:48;;;;;;;3.00;2.70;;;15.30;99.90;14.80;99433;;;;565992;254;24165;-85
2023/07/30 02:38:16;;;;;;;3.20;3.00;;;15.30;99.90;14.70;99443;;;;557345;254;24169;-85
2023/07/30 02:40:44;;;;;;;3.00;2.70;;;15.20;99.90;14.70;99434;;;;556970;254;24197;-85
2023/07/30 02:43:13;;;;;;;3.40;2.67;;;15.20;99.90;14.70;99428;;;;556604;254;24135;-85
2023/07/30 02:45:41;;;;;;;2.80;2.60;;;15.10;99.90;14.70;99432;;;;556498;254;24205;-85
2023/07/30 02:48:09;;;;;;;3.77;3.00;;;15.10;99.90;14.60;99437;;;;556844;254;24149;-85
2023/07/30 02:50:37;;;;;;;3.43;3.13;;;15.10;99.90;14.60;99436;;;;556549;254;24138;-85
2023/07/30 02:53:08;;;;;;;3.43;3.13;;;15.10;99.90;14.60;99426;;;;556805;254;24126;-85
2023/07/30 02:55:33;;;;;;;3.10;2.80;;;15.00;99.90;14.50;99437;;;;556626;254;24159;-84
2023/07/30 02:58:04;;;;;;;4.20;3.50;;;15.00;99.90;14.50;99440;;;;556716;254;24123;-85
2023/07/30 03:00:29;;;;;;;3.27;3.03;;;15.00;99.90;14.50;99436;;;;556839;254;24140;-86
2023/07/30 03:02:57;;;;;;;3.93;2.97;;;15.00;99.90;14.50;99438;;;;556559;254;24219;-85
2023/07/30 03:05:30;;;;;;;3.70;3.40;;;15.00;99.90;14.50;99445;;;;556773;254;24153;-86
2023/07/30 03:07:55;;;;;;;3.43;3.13;;;15.00;99.90;14.50;99435;;;;556407;251;24184;-85
2023/07/30 03:10:23;;;;;;;3.77;3.17;;;15.00;99.90;14.50;99442;;;;564583;253;24175;-85
2023/07/30 03:12:53;;;;;;;4.77;3.60;;;15.00;99.90;14.50;99444;;;;564602;252;24143;-85
2023/07/30 03:15:24;;;;;;;5.23;3.83;;;15.00;99.90;14.50;99445;;;;556070;254;24151;-85
2023/07/30 03:17:56;;;;;;;4.00;3.70;;;15.00;99.90;14.50;99451;;;;564494;254;24233;-83
2023/07/30 03:20:24;;;;;;;6.03;3.63;;;15.00;99.90;14.50;99450;;;;565558;254;24149;-83
2023/07/30 03:23:03;;;;;;;5.33;3.50;;;15.00;99.90;14.60;99455;;;;565453;254;24145;-83
2023/07/30 03:25:35;;;;;;;4.47;3.50;;;15.00;99.90;14.60;99447;;;;556786;254;24147;-83
2023/07/30 03:28:04;;;;;;;6.00;3.40;;;15.00;99.90;14.60;99449;;;;557204;254;24226;-83
2023/07/30 03:30:29;;;;;;;4.20;3.80;;;15.00;99.90;14.60;99458;;;;564988;251;24158;-84
2023/07/30 03:32:57;;;;;;;4.50;4.10;;;15.10;99.90;14.70;99459;;;;556453;254;24183;-85
2023/07/30 03:35:25;;;;;;;4.93;4.10;;;15.10;99.90;14.70;99463;;;;556370;254;24142;-85
2023/07/30 03:37:55;;;;;;;7.93;4.40;;;15.20;99.90;14.70;99457;;;;556427;254;24156;-85
2023/07/30 03:40:26;;;;;;;7.73;4.37;;;15.10;99.90;14.80;99457;;;;556852;254;24226;-85
2023/07/30 03:42:51;;;;;;;4.87;4.40;;;15.20;99.90;14.90;99458;;;;557019;253;24160;-85
2023/07/30 03:45:23;;;;;;;4.63;4.23;;;15.40;99.90;15.00;99460;;;;557102;254;24152;-84
2023/07/30 03:47:48;;;;;;;5.10;4.67;;;15.50;99.90;15.10;99456;;;;556569;254;24179;-85
2023/07/30 03:50:17;;;;;;;5.93;5.03;;;15.60;99.90;15.20;99461;;;;557514;250;24103;-85
2023/07/30 03:52:47;;;;;;;11.90;5.43;;;15.60;99.90;15.40;99462;;;;556700;254;24131;-85
2023/07/30 03:55:13;;;;;;;5.90;5.37;;;15.80;99.90;16.00;99463;;;;556463;254;24166;-85
2023/07/30 03:57:44;;;;;;;8.13;5.53;;;16.30;99.90;16.80;99466;;;;565521;251;24157;-83
2023/07/30 04:00:12;;;;;;;5.60;5.10;;;17.10;99.90;17.50;99477;;;;565011;254;24146;-83
2023/07/30 04:02:40;;;;;;;9.23;5.30;;;17.70;99.90;18.20;99478;;;;564743;250;24213;-84
2023/07/30 04:05:04;;;;;;;9.47;5.27;;;18.50;99.90;18.30;99486;;;;564816;254;24128;-85
2023/07/30 04:07:32;;;;;;;5.00;4.47;;;18.80;99.90;18.20;99495;;;;556508;254;24111;-83
2023/07/30 04:10:00;;;;;;;5.50;5.00;;;18.80;99.90;18.00;99493;;;;556536;254;23162;-84
2023/07/30 04:12:28;;;;;;;5.67;5.03;;;18.70;99.90;17.90;99496;;;;556352;254;24152;-83
2023/07/30 04:14:57;;;;;;;5.80;5.03;;;18.40;99.90;17.70;99493;;;;556150;254;24139;-84
2023/07/30 04:17:25;;;;;;;5.90;4.83;;;18.30;99.90;17.70;99493;;;;556175;254;24147;-83
2023/07/30 04:19:53;;;;;;;7.10;5.00;;;18.20;99.90;17.60;99497;;;;556101;254;24115;-84
2023/07/30 04:22:21;;;;;;;6.70;5.03;;;18.20;99.90;17.70;99485;;;;555778;254;24123;-84
2023/07/30 04:24:49;;;;;;;8.10;5.10;;;18.70;99.90;18.30;99474;;;;555446;254;24160;-83
2023/07/30 04:27:18;;;;;;;5.57;4.70;;;19.70;99.90;19.30;99485;;;;555486;254;24124;-82
2023/07/30 04:29:46;;;;;;;5.77;4.77;;;19.60;99.90;19.80;99497;;;;555498;254;23161;-81
2023/07/30 04:32:14;;;;;;;4.40;4.00;;;20.30;99.90;19.90;99488;;;;555630;254;23190;-83
2023/07/30 04:34:42;;;;;;;4.90;4.50;;;20.40;99.90;19.70;99488;;;;555879;254;24142;-83
2023/07/30 04:37:10;;;;;;;4.77;4.37;;;20.30;99.90;19.70;99492;;;;555928;254;23190;-83
2023/07/30 04:39:40;;;;;;;4.70;4.10;;;20.20;99.90;20.00;99486;;;;556589;254;23147;-82
2023/07/30 04:42:05;;;;;;;5.10;4.70;;;20.40;99.90;20.70;99491;;;;556423;254;24150;-84
2023/07/30 04:44:33;;;;;;;4.90;4.50;;;21.10;99.90;21.60;99492;;;;564418;254;24202;-84
2023/07/30 04:47:01;;;;;;;4.70;4.20;;;22.10;99.90;22.90;99502;;;;556225;254;24168;-82
2023/07/30 04:49:30;;;;;;;4.53;4.13;;;24.40;99.90;23.70;99499;;;;555976;254;24184;-80
2023/07/30 04:51:58;;;;;;;4.93;4.43;;;24.40;99.90;24.30;99498;;;;556387;254;24138;-81
2023/07/30 04:54:26;;;;;;;4.80;4.40;;;24.90;99.90;24.50;99489;;;;557753;253;23163;-78
2023/07/30 04:56:54;;;;;;;5.00;4.60;;;25.20;99.90;24.20;99494;;;;566678;249;24252;-81
2023/07/30 04:59:21;;;;;;;4.63;4.23;;;25.00;99.90;23.70;99498;;;;585898;242;23294;-83
2023/07/30 05:01:49;;;;;;;4.47;4.17;;;24.40;99.90;23.10;99504;;;;589897;238;23050;-82
2023/07/30 05:04:18;;;;;;;5.07;4.50;;;23.40;99.90;22.70;99497;;;;589199;237;24011;-84
2023/07/30 05:06:49;;;;;;;4.83;4.53;;;23.40;99.90;22.30;99502;;;;589269;237;24011;-85
2023/07/30 05:09:14;;;;;;;6.07;4.80;;;23.00;99.90;22.00;99499;;;;601989;238;24065;-83
2023/07/30 05:11:42;;;;;;;5.27;4.83;;;22.60;99.90;21.90;99509;;;;589331;237;24007;-81
2023/07/30 05:14:11;;;;;;;4.77;4.37;;;22.30;99.90;21.80;99509;;;;588986;237;24053;-84
2023/07/30 05:16:38;;;;;;;5.60;4.70;;;22.30;99.90;21.80;99506;;;;602165;237;24094;-81
2023/07/30 05:19:06;;;;;;;5.07;4.67;;;22.20;99.90;21.70;99516;;;;589175;238;24072;-81
2023/07/30 05:21:34;;;;;;;5.40;4.90;;;22.20;99.90;21.60;99504;;;;589191;238;24055;-81
2023/07/30 05:24:05;;;;;;;6.20;5.70;;;22.10;99.90;21.50;99504;;;;588758;238;24045;-80
2023/07/30 05:26:30;;;;;;;5.90;5.30;;;22.00;99.90;21.40;99482;;;;597203;235;24063;-80
2023/07/30 05:28:58;;;;;;;6.00;5.50;;;21.90;99.90;21.30;99481;;;;588815;237;24058;-80
2023/07/30 05:31:26;;;;;;;5.23;4.83;;;21.80;99.90;21.20;99477;;;;588513;238;24089;-80
2023/07/30 05:33:54;;;;;;;6.07;5.27;;;21.70;99.90;21.10;99474;;;;588398;237;24074;-80
2023/07/30 05:36:22;;;;;;;7.32;6.62;;;21.60;99.90;21.10;99478;;;;583556;237;34926;-84
2023/07/30 05:38:50;;;;;;;5.90;5.40;;;21.60;99.90;21.20;99476;;;;588780;238;24051;-83
2023/07/30 05:41:21;;;;;;;7.03;5.20;;;21.60;99.90;21.20;99489;;;;588677;237;24033;-82
2023/07/30 05:43:46;;;;;;;5.53;5.13;;;21.60;99.90;21.10;99483;;;;588607;238;23044;-84
2023/07/30 05:46:14;;;;;;;6.40;5.80;;;21.60;99.90;21.00;99475;;;;588680;237;24098;-83
2023/07/30 05:48:42;;;;;;;6.67;5.97;;;21.50;99.90;20.80;99484;;;;588957;238;24033;-81
2023/07/30 05:51:10;;;;;;;5.53;5.03;;;21.30;99.90;20.70;99490;;;;589147;238;24125;-79
2023/07/30 05:53:38;;;;;;;6.07;4.93;;;21.20;99.90;20.60;99507;;;;588676;238;24042;-80
2023/07/30 05:56:06;;;;;;;5.83;5.10;;;21.10;99.90;20.50;99494;;;;588689;238;23090;-80
2023/07/30 05:58:34;;;;;;;5.93;5.43;;;21.00;99.90;20.50;99499;;;;581606;238;24103;-81
2023/07/30 06:01:02;;;;;;;6.77;5.40;;;21.00;99.90;20.40;99502;;;;589598;242;24051;-82
2023/07/30 06:03:29;;;;;;;6.00;5.27;;;20.90;99.90;20.40;99501;;;;588407;239;23115;-80
2023/07/30 06:05:57;;;;;;;5.93;5.43;;;20.90;99.90;20.50;99503;;;;589947;242;24077;-83
2023/07/30 06:08:25;;;;;;;5.80;5.23;;;21.00;99.90;20.60;99497;;;;589889;241;23400;-82
2023/07/30 06:10:53;;;;;;;5.93;5.27;;;21.10;99.90;20.70;99501;;;;590672;241;23111;-83
2023/07/30 06:13:21;;;;;;;6.83;5.43;;;21.20;99.90;20.90;99492;;;;589609;241;24089;-83
2023/07/30 06:15:50;;;;;;;6.73;5.90;;;21.50;99.90;21.10;99496;;;;590341;242;24053;-81
2023/07/30 06:18:18;;;;;;;7.23;6.20;;;21.80;99.90;21.50;99492;;;;589145;241;24058;-80
2023/07/30 06:20:46;;;;;;;5.90;5.40;;;21.80;99.90;21.80;99502;;;;590370;241;24058;-80
2023/07/30 06:23:14;;;;;;;7.10;6.40;;;22.20;99.90;22.00;99495;;;;589124;241;24068;-83
2023/07/30 06:25:42;;;;;;;6.57;5.87;;;22.50;99.90;22.30;99493;;;;589715;242;24065;-85
2023/07/30 06:28:11;;;;;;;6.17;5.57;;;23.90;99.90;23.80;99500;;;;588418;238;24110;-85
2023/07/30 06:30:39;;;;;;;5.67;5.13;;;23.80;99.90;26.20;99502;;;;580758;244;23091;-85
2023/07/30 06:33:07;;;;;;;6.13;5.53;;;26.10;99.90;29.00;99508;;;;588578;242;24076;-83
2023/07/30 06:35:35;;;;;;;5.07;4.68;;;28.80;99.90;31.20;99507;;;;589529;242;23070;-83
2023/07/30 06:38:02;;;;;;;4.97;4.57;;;31.20;99.90;33.20;99503;;;;588881;242;24078;-84
2023/07/30 06:40:30;;;;;;;5.20;4.70;;;33.30;99.90;35.00;99511;;;;589951;241;23111;-81
2023/07/30 06:42:59;;;;;;;5.35;4.65;;;36.50;87.60;36.30;99512;;;;588585;242;23104;-83
2023/07/30 06:45:27;;;;;;;4.60;4.20;;;36.40;87.50;37.00;99523;;;;589646;242;23079;-81
2023/07/30 06:47:55;;;;;;;5.25;4.80;;;37.40;79.60;37.00;99524;;;;588546;242;23096;-84
2023/07/30 06:50:23;;;;;;;4.72;4.35;;;37.50;74.20;36.60;99524;;;;589664;242;24066;-84
2023/07/30 06:52:51;;;;;;;4.78;4.37;;;37.30;72.50;35.70;99522;;;;588560;238;24396;-84
2023/07/30 06:55:19;;;;;;;4.68;4.37;;;36.60;71.40;35.50;99528;;;;589620;242;23091;-84
2023/07/30 06:57:46;;;;;;;4.95;4.55;;;36.10;72.10;36.20;99537;;;;579826;244;24345;-83
2023/07/30 07:00:21;;;;;;;4.87;4.32;;;36.50;71.40;36.90;99533;;;;589776;242;23181;-84
2023/07/30 07:02:42;;;;;;;4.18;3.85;;;37.10;69.40;38.20;99542;;;;576415;245;23111;-84
2023/07/30 07:05:10;;;;;;;3.80;3.45;;;38.30;66.20;39.10;99539;;;;589342;241;23116;-84
2023/07/30 07:07:38;;;;;;;4.28;3.87;;;39.10;63.10;40.00;99542;;;;588417;242;23077;-82
2023/07/30 07:10:07;;;;;;;4.15;3.75;;;41.10;58.80;41.10;99531;;;;589587;242;24073;-82
2023/07/30 07:12:35;;;;;;;3.60;3.30;;;41.00;58.60;42.10;99540;;;;586696;243;23117;-82
2023/07/30 07:15:03;;;;;;;3.60;3.30;;;42.10;57.30;42.70;99543;;;;589679;242;24078;-82
2023/07/30 07:17:31;;;;;;;3.00;2.90;;;43.40;52.40;43.40;99550;;;;589184;242;23108;-81
2023/07/30 07:19:59;;;;;;;3.25;3.05;;;43.30;52.20;44.10;99554;;;;591067;241;24159;-83
2023/07/30 07:22:27;;;;;;;5.10;3.40;;;44.30;50.70;44.10;99549;;;;589723;241;23107;-81
2023/07/30 07:24:55;;;;;;;3.25;3.00;;;44.50;49.20;42.60;99560;;;;590710;242;23079;-81
2023/07/30 07:27:24;;;;;;;3.72;3.42;;;43.40;49.90;41.60;99557;;;;588882;241;23154;-81
2023/07/30 07:29:51;;;;;;;3.22;2.85;;;42.50;50.50;42.00;99563;;;;589929;243;23122;-83
2023/07/30 07:32:19;;;;;;;3.30;2.80;;;42.40;51.40;41.60;99568;;;;588796;242;23088;-82
2023/07/30 07:34:47;;;;;;;3.05;2.70;;;42.20;51.30;40.00;99570;;;;581076;244;23050;-81
2023/07/30 07:37:18;;;;;;;4.30;3.58;;;41.00;51.70;38.70;99575;;;;581211;244;23119;-81
2023/07/30 07:39:43;;;;;;;3.80;3.50;;;38.60;54.90;37.90;99568;;;;589834;243;23059;-81
2023/07/30 07:42:11;;;;;;;2.72;2.53;;;38.50;54.80;38.80;99568;;;;588904;242;23084;-80
2023/07/30 07:44:39;;;;;;;2.60;2.40;;;38.80;54.80;40.20;99568;;;;582020;242;24089;-80
2023/07/30 07:47:07;;;;;;;4.07;3.42;;;39.90;53.30;41.60;99578;;;;588964;241;23044;-82
2023/07/30 07:49:36;;;;;;;4.03;2.30;;;42.30;50.90;42.60;99579;;;;590634;241;23044;-84
2023/07/30 07:52:04;;;;;;;3.47;2.47;;;43.30;49.10;43.40;99575;;;;580991;244;23055;-82
2023/07/30 07:54:32;;;;;;;2.72;2.60;;;43.20;49.00;44.00;99571;;;;580791;244;23233;-81
2023/07/30 07:57:00;;;;;;;2.80;2.50;;;43.90;48.40;44.30;99576;;;;588180;242;23110;-85
2023/07/30 07:59:28;;;;;;;3.20;2.17;;;44.40;47.50;44.70;99574;;;;589262;239;23066;-82
2023/07/30 08:01:57;;;;;;;3.72;2.58;;;45.20;46.20;44.90;99574;;;;588214;238;23100;-82
2023/07/30 08:04:25;;;;;;;2.12;2.03;;;45.70;45.20;45.50;99577;;;;589186;242;23061;-83
2023/07/30 08:06:53;;;;;;;7.30;2.37;;;45.60;45.10;46.20;99574;;;;588223;242;23050;-83
2023/07/30 08:09:25;;;;;;;2.45;2.28;;;46.30;43.50;46.40;99577;;;;589286;241;23090;-83
2023/07/30 08:11:49;;;;;;;2.40;2.30;;;46.50;43.20;46.80;99584;;;;574023;245;35146;-81
2023/07/30 08:14:18;;;;;;;2.60;2.40;;;47.40;42.70;47.10;99581;;;;589710;241;24085;-81
2023/07/30 08:16:47;;;;;;;2.42;2.28;;;47.80;42.80;47.60;99584;;;;588618;238;23129;-82
2023/07/30 08:19:14;;;;;;;2.45;2.33;;;47.80;42.70;48.00;99585;;;;589753;242;23073;-80
2023/07/30 08:21:42;;;;;;;2.40;2.20;;;48.30;41.70;48.70;99582;;;;588640;242;23148;-83
2023/07/30 08:24:10;;;;;;;2.40;2.28;;;48.80;41.50;49.40;99584;;;;589708;242;24095;-83
2023/07/30 08:26:39;;;;;;;2.58;2.37;;;48.70;40.40;47.80;99596;;;;588057;243;23092;-82
2023/07/30 08:29:10;;;;;;;2.47;2.20;;;47.10;42.00;45.80;99594;;;;590051;241;23051;-82
2023/07/30 08:31:36;;;;;;;2.80;2.60;;;47.10;41.70;44.20;99591;;;;589439;238;23053;-84
2023/07/30 08:34:03;;;;;;;2.40;2.28;;;45.50;42.70;42.00;99594;;;;578705;244;23093;-84
2023/07/30 08:36:31;;;;;;;2.30;2.20;;;43.40;44.00;41.60;99592;;;;589120;238;23076;-81
2023/07/30 08:39:00;;;;;;;2.62;2.37;;;42.90;46.30;43.20;99604;;;;590034;242;23136;-83
2023/07/30 08:41:29;;;;;;;2.30;2.12;;;43.00;46.30;44.90;99600;;;;580175;244;23143;-84
2023/07/30 08:44:01;;;;;;;4.57;2.42;;;44.50;43.70;45.50;99606;;;;581655;244;23110;-85
2023/07/30 08:46:25;;;;;;;2.40;2.30;;;45.50;42.90;45.80;99604;;;;579437;244;23082;-86
2023/07/30 08:48:56;;;;;;;2.58;2.37;;;46.70;42.80;46.50;99602;;;;590019;242;23089;-84
2023/07/30 08:51:25;;;;;;;2.92;2.72;;;46.70;42.70;46.30;99619;;;;579759;244;23112;-86
2023/07/30 08:53:50;;;;;;;2.40;2.20;;;46.80;42.10;47.30;99606;;;;580887;244;24089;-84
2023/07/30 08:56:17;;;;;;;4.75;2.53;;;47.50;41.70;48.40;99605;;;;580015;244;23079;-82
2023/07/30 08:58:46;;;;;;;2.50;2.30;;;49.50;40.00;49.30;99611;;;;581089;244;23087;-83
2023/07/30 09:01:15;;;;;;;4.87;3.50;;;50.30;39.50;49.90;99605;;;;579630;244;23070;-84
2023/07/30 09:03:46;;;;;;;4.40;2.67;;;50.20;39.40;49.40;99592;;;;581192;244;23101;-82
2023/07/30 09:06:11;;;;;;;2.47;2.28;;;50.40;38.90;48.40;99604;;;;578932;245;23094;-80
2023/07/30 09:08:39;;;;;;;3.33;2.60;;;49.50;38.60;48.10;99605;;;;580460;244;23064;-82
2023/07/30 09:11:09;;;;;;;2.47;2.37;;;49.00;39.30;47.10;99608;;;;588569;242;23096;-81
2023/07/30 09:13:41;;;;;;;2.30;2.10;;;47.20;40.00;45.80;99612;;;;580619;244;23080;-85
2023/07/30 09:16:11;;;;;;;2.78;2.55;;;47.20;40.00;45.10;99607;;;;588681;242;23224;-83
2023/07/30 09:18:43;;;;;;;2.58;2.10;;;45.40;41.50;44.20;99607;;;;580382;244;23113;-81
2023/07/30 09:21:11;;;;;;;1.90;1.80;;;45.30;41.40;42.30;99611;;;;576935;245;23054;-84
2023/07/30 09:23:45;;;;;;;2.87;2.67;;;43.90;42.30;41.50;99604;;;;580507;244;23076;-84
2023/07/30 09:26:16;;;;;;;3.35;1.87;;;42.70;44.00;42.50;99601;;;;580184;245;23088;-84
2023/07/30 09:28:43;;;;;;;2.17;2.08;;;43.10;44.70;43.40;99590;;;;589373;243;23120;-83
2023/07/30 09:31:08;;;;;;;2.30;2.20;;;43.80;44.10;44.80;99606;;;;579063;245;23092;-84
2023/07/30 09:33:36;;;;;;;4.18;2.50;;;45.00;42.90;45.80;99605;;;;589462;242;23089;-84
2023/07/30 09:36:04;;;;;;;2.17;2.08;;;46.20;41.50;46.50;99616;;;;579210;243;23132;-84
2023/07/30 09:38:33;;;;;;;2.10;2.00;;;47.10;40.60;46.80;99611;;;;586917;243;23094;-83
2023/07/30 09:41:03;;;;;;;1.83;1.73;;;47.50;40.00;47.50;99610;;;;589243;242;23095;-82
2023/07/30 09:43:34;;;;;;;1.98;1.87;;;48.40;39.30;48.10;99614;;;;590697;241;23067;-84
2023/07/30 09:46:02;;;;;;;2.30;2.10;;;49.00;38.40;49.40;99609;;;;589241;243;23117;-85
2023/07/30 09:48:36;;;;;;;2.25;2.05;;;50.20;38.20;50.10;99610;;;;586888;243;23079;-85
2023/07/30 09:51:06;;;;;;;5.87;2.03;;;51.10;37.00;50.20;99602;;;;579513;244;23113;-84
2023/07/30 09:53:34;;;;;;;2.30;2.20;;;51.60;36.70;50.60;99600;;;;585404;244;23108;-84
2023/07/30 09:55:59;;;;;;;2.33;2.10;;;51.90;36.10;51.00;99606;;;;576931;244;24118;-86
2023/07/30 09:58:27;;;;;;;2.10;2.00;;;52.30;36.00;51.30;99604;;;;589918;239;23094;-83
2023/07/30 10:00:54;;;;;;;2.67;2.03;;;52.80;36.10;51.50;99608;;;;588580;241;23243;-83
2023/07/30 10:03:22;;;;;;;2.10;2.00;;;53.20;35.40;51.70;99610;;;;580612;244;23065;-84
2023/07/30 10:05:51;;;;;;;2.15;2.05;;;53.70;35.40;52.20;99606;;;;579486;244;23067;-86
2023/07/30 10:08:22;;;;;;;2.30;2.20;;;53.70;35.00;52.00;99610;;;;580589;244;23118;-84
2023/07/30 10:10:50;;;;;;;2.17;2.08;;;53.90;34.90;51.80;99598;;;;579426;243;24150;-84
2023/07/30 10:13:17;;;;;;;2.58;2.10;;;53.70;34.80;51.40;99602;;;;580763;244;23057;-84
2023/07/30 10:15:47;;;;;;;2.65;2.53;;;52.50;35.70;50.70;99601;;;;588885;242;23095;-82
2023/07/30 10:18:16;;;;;;;2.20;2.10;;;51.70;35.90;50.00;99604;;;;580958;244;23110;-81
2023/07/30 10:20:54;;;;;;;2.22;2.12;;;51.20;35.90;50.00;99602;;;;588687;241;23206;-85
2023/07/30 10:23:21;;;;;;;2.10;2.00;;;51.20;35.90;50.20;99599;;;;581639;242;23060;-85
2023/07/30 10:25:49;;;;;;;3.50;1.95;;;51.20;36.20;50.30;99604;;;;579799;245;23076;-85
2023/07/30 10:28:33;;;;;;;1.95;1.85;;;51.30;36.30;49.50;99606;;;;580439;244;23063;-83
2023/07/30 10:31:10;;;;;;;2.10;2.00;;;50.90;36.00;49.10;99610;;;;581298;242;23047;-82
2023/07/30 10:33:54;;;;;;;1.67;1.58;;;49.80;36.60;48.20;99622;;;;581390;244;23063;-82
2023/07/30 10:36:33;;;;;;;1.90;1.80;;;49.70;36.50;46.30;99621;;;;579096;245;23065;-83
2023/07/30 10:39:21;;;;;;;2.85;2.12;;;48.20;37.10;44.20;99620;;;;576683;244;23092;-81
2023/07/30 10:41:54;;;;;;;2.50;1.98;;;46.10;38.50;43.00;99622;;;;579850;245;23062;-82
2023/07/30 10:44:22;;;;;;;1.90;1.80;;;44.60;40.70;42.80;99618;;;;578493;244;23085;-81
2023/07/30 10:46:47;;;;;;;1.98;1.87;;;44.00;42.00;42.40;99619;;;;580101;245;23129;-83
2023/07/30 10:49:17;;;;;;;2.10;2.00;;;43.50;42.90;41.90;99618;;;;580953;244;23085;-82
2023/07/30 10:51:45;;;;;;;2.28;2.05;;;42.80;42.90;41.00;99628;;;;589631;242;23143;-84
2023/07/30 10:54:16;;;;;;;2.00;1.90;;;41.90;43.30;39.70;99625;;;;591499;241;23100;-83
2023/07/30 10:56:44;;;;;;;2.75;1.95;;;40.70;44.20;38.40;99631;;;;580523;244;23065;-85
2023/07/30 10:59:09;;;;;;;2.45;2.22;;;39.40;45.60;37.30;99630;;;;581414;244;23078;-87
2023/07/30 11:01:40;;;;;;;1.90;1.80;;;38.00;47.30;36.30;99627;;;;589566;241;23080;-83
2023/07/30 11:04:24;;;;;;;3.55;1.65;;;36.90;49.60;35.50;99630;;;;580698;244;23089;-83
2023/07/30 11:06:49;;;;;;;1.90;1.80;;;36.00;51.20;34.90;99633;;;;579556;244;23094;-84
2023/07/30 11:09:22;;;;;;;1.77;1.62;;;35.20;52.50;34.40;99626;;;;581168;244;23118;-84
2023/07/30 11:11:54;;;;;;;5.60;1.75;;;34.60;53.50;33.90;99637;;;;577115;244;23142;-84
2023/07/30 11:14:19;;;;;;;2.30;2.00;;;34.10;53.80;33.20;99631;;;;580507;244;23097;-83
2023/07/30 11:16:52;;;;;;;2.00;1.90;;;33.50;54.90;32.80;99642;;;;580140;244;24066;-83
2023/07/30 11:19:21;;;;;;;1.65;1.60;;;33.00;56.30;32.50;99637;;;;580178;244;23068;-83
2023/07/30 11:21:49;;;;;;;3.72;1.83;;;32.70;57.60;32.20;99633;;;;589164;241;23061;-83
2023/07/30 11:24:20;;;;;;;2.78;2.30;;;32.40;58.90;32.10;99631;;;;581151;244;23110;-83